createdAt,value
2019-01-25T00:01:34.468Z,101472.78
2019-01-25T00:04:03.463Z,101468.20
2019-01-25T00:06:32.426Z,101466.27
2019-01-25T00:09:01.373Z,101464.41
2019-01-25T00:11:30.269Z,101461.83
2019-01-25T00:13:59.202Z,101467.70
2019-01-25T00:16:28.219Z,101459.73
2019-01-25T00:18:57.191Z,101462.81
2019-01-25T00:21:26.166Z,101455.31
2019-01-25T00:23:55.693Z,101456.53
2019-01-25T00:26:24.715Z,101456.72
2019-01-25T00:28:53.662Z,101453.17
2019-01-25T00:31:22.558Z,101451.20
2019-01-25T00:33:51.496Z,101452.69
2019-01-25T00:36:20.539Z,101454.44
2019-01-25T00:38:49.547Z,101451.28
2019-01-25T00:41:18.556Z,101463.47
2019-01-25T00:43:47.630Z,101462.12
2019-01-25T00:46:16.530Z,101459.47
2019-01-25T00:48:45.501Z,101457.18
2019-01-25T00:51:14.439Z,101454.66
2019-01-25T00:53:43.413Z,101455.59
2019-01-25T00:56:12.378Z,101449.69
2019-01-25T00:58:41.258Z,101455.98
2019-01-25T01:01:10.191Z,101451.55
2019-01-25T01:03:39.151Z,101451.39
2019-01-25T01:06:08.261Z,101461.22
2019-01-25T01:08:37.197Z,101453.78
2019-01-25T01:11:06.221Z,101458.20
2019-01-25T01:13:35.184Z,101456.00
2019-01-25T01:16:04.903Z,101454.14
2019-01-25T01:18:33.836Z,101459.82
2019-01-25T01:21:02.815Z,101458.53
2019-01-25T01:23:31.874Z,101465.34
2019-01-25T01:26:00.699Z,101468.11
2019-01-25T01:29:06.274Z,101464.98
2019-01-25T01:31:35.209Z,101461.58
2019-01-25T01:34:21.996Z,101466.38
2019-01-25T01:36:50.892Z,101469.03
2019-01-25T01:39:19.782Z,101468.22
2019-01-25T01:41:48.680Z,101468.11
2019-01-25T01:44:17.632Z,101461.30
2019-01-25T01:46:46.693Z,101469.34
2019-01-25T01:49:15.582Z,101462.64
2019-01-25T01:51:44.460Z,101464.90
2019-01-25T01:54:13.367Z,101458.89
2019-01-25T01:56:42.306Z,101462.59
2019-01-25T01:59:11.226Z,101462.30
2019-01-25T02:01:40.208Z,101461.36
2019-01-25T02:04:09.111Z,101464.41
2019-01-25T02:06:38.120Z,101467.95
2019-01-25T02:09:08.541Z,101465.50
2019-01-25T02:11:37.515Z,101458.17
2019-01-25T02:14:06.491Z,101462.42
2019-01-25T02:16:35.368Z,101461.38
2019-01-25T02:19:04.494Z,101461.27
2019-01-25T02:21:33.439Z,101453.77
2019-01-25T02:24:02.330Z,101455.41
2019-01-25T02:26:31.238Z,101452.48
2019-01-25T02:29:00.129Z,101459.64
2019-01-25T02:31:29.132Z,101457.42
2019-01-25T02:33:58.005Z,101458.27
2019-01-25T02:36:27.008Z,101463.00
2019-01-25T02:38:55.917Z,101464.03
2019-01-25T02:41:24.827Z,101458.78
2019-01-25T02:43:53.755Z,101456.70
2019-01-25T02:46:22.636Z,101453.97
2019-01-25T02:48:51.635Z,101454.80
2019-01-25T02:51:20.565Z,101456.08
2019-01-25T02:53:49.454Z,101459.35
2019-01-25T02:56:18.456Z,101457.37
2019-01-25T02:58:47.330Z,101458.72
2019-01-25T03:01:16.243Z,101448.27
2019-01-25T03:04:24.652Z,101450.73
2019-01-25T03:06:53.605Z,101451.75
2019-01-25T03:09:22.566Z,101443.41
2019-01-25T03:11:51.485Z,101442.02
2019-01-25T03:14:20.401Z,101439.22
2019-01-25T03:16:49.288Z,101447.03
2019-01-25T03:19:18.239Z,101442.45
2019-01-25T03:21:47.190Z,101454.13
2019-01-25T03:24:18.633Z,101456.12
2019-01-25T03:26:47.535Z,101451.08
2019-01-25T03:29:16.414Z,101451.70
2019-01-25T03:31:45.344Z,101450.06
2019-01-25T03:34:14.282Z,101447.97
2019-01-25T03:36:43.305Z,101451.48
2019-01-25T03:39:12.190Z,101451.84
2019-01-25T03:41:41.152Z,101442.80
2019-01-25T03:44:10.221Z,101443.16
2019-01-25T03:46:39.128Z,101453.44
2019-01-25T03:49:08.080Z,101452.33
2019-01-25T03:51:36.948Z,101448.77
2019-01-25T03:54:06.011Z,101449.19
2019-01-25T03:56:35.009Z,101459.05
2019-01-25T03:59:03.961Z,101452.89
2019-01-25T04:01:32.918Z,101455.13
2019-01-25T04:04:01.746Z,101452.89
2019-01-25T04:06:30.611Z,101452.53
2019-01-25T04:08:59.544Z,101448.30
2019-01-25T04:11:28.438Z,101454.80
2019-01-25T04:13:57.388Z,101448.20
2019-01-25T04:16:26.457Z,101443.16
2019-01-25T04:18:55.404Z,101438.73
2019-01-25T04:21:24.434Z,101441.09
2019-01-25T04:23:53.367Z,101443.18
2019-01-25T04:26:22.321Z,101448.92
2019-01-25T04:28:51.286Z,101452.92
2019-01-25T04:31:20.168Z,101459.71
2019-01-25T04:33:49.071Z,101463.22
2019-01-25T04:36:17.947Z,101462.40
2019-01-25T04:38:46.859Z,101464.27
2019-01-25T04:41:15.759Z,101465.45
2019-01-25T04:43:44.621Z,101464.10
2019-01-25T04:46:13.535Z,101462.59
2019-01-25T04:48:42.519Z,101467.48
2019-01-25T04:51:11.437Z,101468.39
2019-01-25T04:53:40.437Z,101469.78
2019-01-25T04:56:09.326Z,101474.64
2019-01-25T04:58:38.294Z,101469.04
2019-01-25T05:01:09.153Z,101471.79
2019-01-25T05:03:38.147Z,101466.05
2019-01-25T05:06:07.540Z,101459.24
2019-01-25T05:08:36.795Z,101469.16
2019-01-25T05:11:19.926Z,101466.27
2019-01-25T05:13:47.540Z,101467.75
2019-01-25T05:16:16.923Z,101469.72
2019-01-25T05:18:45.860Z,101476.42
2019-01-25T05:21:25.055Z,101467.75
2019-01-25T05:23:54.034Z,101468.11
2019-01-25T05:26:22.839Z,101473.57
2019-01-25T05:28:51.755Z,101479.55
2019-01-25T05:31:24.807Z,101476.78
2019-01-25T05:33:59.248Z,101477.22
2019-01-25T05:36:28.296Z,101474.39
2019-01-25T05:38:57.189Z,101473.92
2019-01-25T05:41:28.529Z,101474.15
2019-01-25T05:43:56.771Z,101475.70
2019-01-25T05:46:25.680Z,101476.42
2019-01-25T05:48:54.624Z,101483.78
2019-01-25T05:51:23.637Z,101482.83
2019-01-25T05:53:53.392Z,101484.97
2019-01-25T05:56:23.310Z,101483.63
2019-01-25T05:58:52.205Z,101485.89
2019-01-25T06:01:21.160Z,101486.14
2019-01-25T06:03:50.106Z,101487.77
2019-01-25T06:06:19.126Z,101482.11
2019-01-25T06:08:48.053Z,101487.11
2019-01-25T06:11:17.051Z,101486.20
2019-01-25T06:13:46.557Z,101489.33
2019-01-25T06:16:15.895Z,101490.38
2019-01-25T06:18:44.904Z,101484.70
2019-01-25T06:21:14.225Z,101482.83
2019-01-25T06:23:43.197Z,101471.42
2019-01-25T06:26:13.081Z,101473.77
2019-01-25T06:28:41.957Z,101484.50
2019-01-25T06:31:11.128Z,101476.02
2019-01-25T06:33:40.061Z,101477.20
2019-01-25T06:36:08.965Z,101473.70
2019-01-25T06:38:38.082Z,101469.87
2019-01-25T06:41:22.452Z,101483.30
2019-01-25T06:43:51.490Z,101481.67
2019-01-25T06:46:20.462Z,101476.42
2019-01-25T06:48:49.286Z,101478.59
2019-01-25T06:51:18.256Z,101478.27
2019-01-25T06:53:47.232Z,101485.05
2019-01-25T06:56:16.251Z,101479.19
2019-01-25T06:58:57.998Z,101474.36
2019-01-25T07:01:31.339Z,101470.91
2019-01-25T07:04:00.336Z,101473.22
2019-01-25T07:06:29.294Z,101474.42
2019-01-25T07:08:58.211Z,101474.61
2019-01-25T07:11:27.209Z,101470.06
2019-01-25T07:13:56.227Z,101468.67
2019-01-25T07:16:25.227Z,101468.67
2019-01-25T07:18:54.160Z,101468.30
2019-01-25T07:21:23.185Z,101457.64
2019-01-25T07:23:52.176Z,101465.01
2019-01-25T07:26:21.100Z,101454.33
2019-01-25T07:28:50.078Z,101457.03
2019-01-25T07:31:18.895Z,101454.41
2019-01-25T07:33:47.923Z,101458.69
2019-01-25T07:36:16.810Z,101459.58
2019-01-25T07:38:45.734Z,101463.02
2019-01-25T07:41:14.657Z,101477.80
2019-01-25T07:43:43.545Z,101482.93
2019-01-25T07:46:12.540Z,101472.86
2019-01-25T07:48:41.597Z,101474.42
2019-01-25T07:51:10.600Z,101471.63
2019-01-25T07:53:39.565Z,101478.95
2019-01-25T07:56:08.601Z,101477.09
2019-01-25T07:58:37.583Z,101473.08
2019-01-25T08:01:06.543Z,101474.27
2019-01-25T08:03:35.438Z,101473.84
2019-01-25T08:06:04.385Z,101470.75
2019-01-25T08:08:33.267Z,101478.48
2019-01-25T08:11:02.275Z,101475.33
2019-01-25T08:13:31.213Z,101480.60
2019-01-25T08:16:00.221Z,101485.73
2019-01-25T08:18:29.186Z,101487.40
2019-01-25T08:20:58.196Z,101483.17
2019-01-25T08:23:27.223Z,101476.98
2019-01-25T08:25:56.199Z,101470.53
2019-01-25T08:28:25.098Z,101465.10
2019-01-25T08:30:53.917Z,101465.69
2019-01-25T08:33:22.880Z,101472.25
2019-01-25T08:35:51.858Z,101470.75
2019-01-25T08:38:20.893Z,101474.72
2019-01-25T08:40:49.865Z,101468.04
2019-01-25T08:43:18.794Z,101459.62
2019-01-25T08:45:49.492Z,101471.64
2019-01-25T08:48:18.549Z,101472.17
2019-01-25T08:50:47.557Z,101465.83
2019-01-25T08:53:16.525Z,101472.06
2019-01-25T08:55:45.530Z,101470.08
2019-01-25T08:58:14.441Z,101473.38
2019-01-25T09:00:43.319Z,101476.97
2019-01-25T09:03:12.249Z,101484.11
2019-01-25T09:05:41.144Z,101482.41
2019-01-25T09:08:10.137Z,101474.05
2019-01-25T09:10:39.170Z,101473.55
2019-01-25T09:13:08.065Z,101480.95
2019-01-25T09:15:36.990Z,101480.92
2019-01-25T09:18:05.948Z,101478.95
2019-01-25T09:20:34.902Z,101469.55
2019-01-25T09:23:03.932Z,101469.78
2019-01-25T09:25:33.056Z,101465.56
2019-01-25T09:28:02.078Z,101474.59
2019-01-25T09:30:31.043Z,101472.72
2019-01-25T09:32:59.959Z,101481.53
2019-01-25T09:35:28.888Z,101478.81
2019-01-25T09:37:57.837Z,101475.30
2019-01-25T09:40:27.708Z,101476.22
2019-01-25T09:42:56.616Z,101475.47
2019-01-25T09:45:25.543Z,101488.67
2019-01-25T09:47:54.509Z,101486.28
2019-01-25T09:50:23.472Z,101482.41
2019-01-25T09:52:52.354Z,101479.58
2019-01-25T09:55:24.511Z,101477.17
2019-01-25T09:57:54.707Z,101471.43
2019-01-25T10:00:33.140Z,101463.03
2019-01-25T10:03:02.085Z,101453.45
2019-01-25T10:05:31.058Z,101448.06
2019-01-25T10:07:59.992Z,101446.30
2019-01-25T10:10:29.011Z,101436.68
2019-01-25T10:12:57.999Z,101430.51
2019-01-25T10:15:27.497Z,101430.55
2019-01-25T10:17:56.442Z,101432.93
2019-01-25T10:20:25.465Z,101424.00
2019-01-25T10:22:54.331Z,101427.92
2019-01-25T10:25:23.269Z,101426.87
2019-01-25T10:27:52.169Z,101431.84
2019-01-25T10:30:23.244Z,101417.30
2019-01-25T10:32:52.280Z,101422.58
2019-01-25T10:35:21.540Z,101427.98
2019-01-25T10:37:50.790Z,101417.64
2019-01-25T10:40:19.884Z,101417.30
2019-01-25T10:42:53.153Z,101416.86
2019-01-25T10:46:17.502Z,101410.51
2019-01-25T10:48:46.446Z,101414.27
2019-01-25T10:51:15.464Z,101402.64
2019-01-25T10:53:44.457Z,101397.12
2019-01-25T10:56:13.371Z,101393.83
2019-01-25T10:58:42.370Z,101394.86
2019-01-25T11:01:11.399Z,101401.44
2019-01-25T11:03:40.566Z,101396.53
2019-01-25T11:06:09.533Z,101399.94
2019-01-25T11:08:38.490Z,101392.16
2019-01-25T11:11:07.394Z,101387.23
2019-01-25T11:13:36.382Z,101390.16
2019-01-25T11:16:06.564Z,101382.61
2019-01-25T11:18:35.532Z,101397.40
2019-01-25T11:21:04.416Z,101374.16
2019-01-25T11:23:33.324Z,101376.97
2019-01-25T11:26:02.355Z,101367.69
2019-01-25T11:28:31.365Z,101363.47
2019-01-25T11:31:00.257Z,101358.53
2019-01-25T11:33:29.203Z,101368.87
2019-01-25T11:35:58.184Z,101361.70
2019-01-25T11:38:27.137Z,101358.07
2019-01-25T11:41:15.283Z,101346.44
2019-01-25T11:43:44.093Z,101349.27
2019-01-25T11:46:12.984Z,101351.02
2019-01-25T11:49:01.175Z,101353.48
2019-01-25T11:52:09.707Z,101351.57
2019-01-25T11:54:57.864Z,101346.68
2019-01-25T11:57:26.674Z,101343.62
2019-01-25T12:00:14.565Z,101342.92
2019-01-25T12:03:02.685Z,101338.34
2019-01-25T12:05:50.834Z,101332.12
2019-01-25T12:08:38.936Z,101331.18
2019-01-25T12:11:07.830Z,101335.52
2019-01-25T12:13:55.710Z,101332.35
2019-01-25T12:16:43.892Z,101337.64
2019-01-25T12:19:12.790Z,101332.00
2019-01-25T12:22:00.926Z,101330.94
2019-01-25T12:24:48.793Z,101337.17
2019-01-25T12:27:36.935Z,101322.96
2019-01-25T12:30:47.078Z,101315.45
2019-01-25T12:33:15.983Z,101312.98
2019-01-25T12:36:04.523Z,101309.93
2019-01-25T12:38:52.415Z,101308.17
2019-01-25T12:41:40.540Z,101309.93
2019-01-25T12:44:28.704Z,101307.34
2019-01-25T12:47:16.694Z,101286.19
2019-01-25T12:50:04.864Z,101281.63
2019-01-25T12:52:53.003Z,101289.26
2019-01-25T12:58:23.451Z,101282.34
2019-01-25T13:01:11.602Z,101277.62
2019-01-25T13:03:59.446Z,101276.83
2019-01-25T13:06:47.369Z,101275.75
2019-01-25T13:09:35.347Z,101272.12
2019-01-25T13:12:04.330Z,101278.94
2019-01-25T13:14:33.147Z,101271.52
2019-01-25T13:20:59.213Z,101276.57
2019-01-25T13:29:38.401Z,101259.55
2019-01-25T13:32:26.411Z,101262.60
2019-01-25T13:35:14.539Z,101252.99
2019-01-25T13:41:09.779Z,101245.82
2019-01-25T13:43:39.107Z,101241.36
2019-01-25T13:46:28.499Z,101239.95
2019-01-25T13:49:16.584Z,101251.70
2019-01-25T13:52:04.728Z,101243.81
2019-01-25T13:54:52.837Z,101241.95
2019-01-25T13:57:21.767Z,101244.65
2019-01-25T14:03:17.013Z,101237.48
2019-01-25T14:08:53.060Z,101225.97
2019-01-25T14:11:41.132Z,101229.27
2019-01-25T14:14:29.283Z,101222.11
2019-01-25T14:17:17.409Z,101221.84
2019-01-25T14:20:26.013Z,101217.41
2019-01-25T14:22:54.994Z,101212.61
2019-01-25T14:26:03.571Z,101220.00
2019-01-25T14:31:58.829Z,101222.58
2019-01-25T14:34:46.659Z,101215.88
2019-01-25T14:37:34.792Z,101215.39
2019-01-25T14:43:32.819Z,101216.21
2019-01-25T14:46:20.969Z,101218.56
2019-01-25T14:49:09.116Z,101217.06
2019-01-25T14:51:57.246Z,101217.16
2019-01-25T14:54:45.401Z,101215.77
2019-01-25T14:57:33.530Z,101212.23
2019-01-25T15:00:21.699Z,101203.44
2019-01-25T15:03:09.860Z,101205.08
2019-01-25T15:05:57.806Z,101202.14
2019-01-25T15:08:45.788Z,101191.00
2019-01-25T15:17:29.270Z,101185.25
2019-01-25T15:20:17.195Z,101181.73
2019-01-25T15:23:05.316Z,101190.16
2019-01-25T15:25:53.403Z,101191.46
2019-01-25T15:28:22.377Z,101188.52
2019-01-25T15:31:10.515Z,101187.48
2019-01-25T15:33:58.678Z,101187.02
2019-01-25T15:36:27.648Z,101188.29
2019-01-25T15:39:15.848Z,101182.88
2019-01-25T15:41:44.862Z,101180.09
2019-01-25T15:44:33.012Z,101179.74
2019-01-25T15:47:21.164Z,101171.64
2019-01-25T15:50:09.285Z,101166.23
2019-01-25T15:52:57.416Z,101171.52
2019-01-25T15:56:06.153Z,101168.57
2019-01-25T15:58:54.262Z,101162.60
2019-01-25T16:01:23.184Z,101157.20
2019-01-25T16:03:52.106Z,101171.05
2019-01-25T16:06:40.252Z,101153.91
2019-01-25T16:09:39.068Z,101162.25
2019-01-25T16:12:20.926Z,101158.37
2019-01-25T16:15:12.066Z,101161.19
2019-01-25T16:17:54.460Z,101164.25
2019-01-25T16:20:33.487Z,101165.86
2019-01-25T16:23:06.283Z,101163.88
2019-01-25T16:25:39.427Z,101176.92
2019-01-25T16:28:12.710Z,101185.72
2019-01-25T16:30:41.542Z,101171.28
2019-01-25T16:33:19.007Z,101166.81
2019-01-25T16:35:53.966Z,101163.77
2019-01-25T16:38:43.046Z,101152.03
2019-01-25T16:41:33.739Z,101152.16
2019-01-25T16:44:17.388Z,101158.25
2019-01-25T16:46:57.631Z,101163.30
2019-01-25T16:49:43.360Z,101160.47
2019-01-25T16:52:17.667Z,101149.23
2019-01-25T16:54:53.192Z,101144.75
2019-01-25T16:58:19.744Z,101129.61
2019-01-25T17:01:20.110Z,101135.13
2019-01-25T17:03:53.341Z,101129.27
2019-01-25T17:06:44.563Z,101126.23
2019-01-25T17:09:29.651Z,101119.52
2019-01-25T17:12:10.132Z,101129.98
2019-01-25T17:19:31.429Z,101139.73
2019-01-25T17:22:54.584Z,101131.75
2019-01-25T17:26:18.792Z,101130.92
2019-01-25T17:29:16.475Z,101110.74
2019-01-25T17:31:52.029Z,101102.16
2019-01-25T17:34:23.963Z,101095.48
2019-01-25T17:37:06.502Z,101090.89
2019-01-25T17:39:42.947Z,101074.12
2019-01-25T17:46:38.141Z,101065.92
2019-01-25T17:49:45.451Z,101058.08
2019-01-25T17:52:32.337Z,101054.09
2019-01-25T17:55:58.669Z,101061.25
2019-01-25T17:58:30.976Z,101047.52
2019-01-25T18:01:04.665Z,101033.78
2019-01-25T18:03:51.713Z,101024.30
2019-01-25T18:06:31.716Z,101003.86
2019-01-25T18:09:03.438Z,100995.52
2019-01-25T18:11:48.254Z,100988.84
2019-01-25T18:14:27.267Z,100977.13
2019-01-25T18:16:59.730Z,100971.84
2019-01-25T18:19:35.498Z,100969.53
2019-01-25T18:22:19.925Z,100963.78
2019-01-25T18:24:59.601Z,100952.50
2019-01-25T18:27:41.236Z,100953.53
2019-01-25T18:30:24.651Z,100941.59
2019-01-25T18:33:05.825Z,100944.75
2019-01-25T18:36:03.378Z,100935.51
2019-01-25T18:39:34.745Z,100937.75
2019-01-25T18:47:16.688Z,100898.34
2019-01-25T18:48:54.492Z,100898.09
2019-01-25T18:51:55.200Z,100877.29
2019-01-25T18:58:34.845Z,100875.48
2019-01-25T19:01:20.328Z,100864.61
2019-01-25T19:04:11.407Z,100865.68
2019-01-25T19:07:09.909Z,100853.00
2019-01-25T19:10:15.104Z,100847.81
2019-01-25T19:13:19.844Z,100838.22
2019-01-25T19:15:48.869Z,100839.16
2019-01-25T19:18:17.857Z,100819.13
2019-01-25T19:20:46.781Z,100817.84
2019-01-25T19:23:15.902Z,100815.70
2019-01-25T19:25:44.938Z,100812.55
2019-01-25T19:28:13.921Z,100814.56
2019-01-25T19:30:44.494Z,100807.14
2019-01-25T19:33:13.508Z,100803.70
2019-01-25T19:35:42.538Z,100799.66
2019-01-25T19:38:13.523Z,100795.28
2019-01-25T19:40:42.519Z,100790.68
2019-01-25T19:43:12.486Z,100787.16
2019-01-25T19:45:41.559Z,100786.08
2019-01-25T19:48:10.614Z,100776.48
2019-01-25T19:50:39.644Z,100760.20
2019-01-25T19:53:08.662Z,100766.30
2019-01-25T19:55:37.662Z,100755.97
2019-01-25T19:58:08.672Z,100761.35
2019-01-25T20:00:39.384Z,100762.05
2019-01-25T20:03:08.708Z,100756.07
2019-01-25T20:05:37.962Z,100747.84
2019-01-25T20:08:07.739Z,100747.17
2019-01-25T20:10:36.694Z,100729.09
2019-01-25T20:13:06.513Z,100725.36
2019-01-25T20:15:35.553Z,100713.14
2019-01-25T20:18:04.834Z,100707.44
2019-01-25T20:20:34.620Z,100711.31
2019-01-25T20:23:03.637Z,100707.52
2019-01-25T20:25:33.076Z,100710.58
2019-01-25T20:28:02.101Z,100702.41
2019-01-25T20:30:32.115Z,100693.33
2019-01-25T20:33:02.284Z,100703.56
2019-01-25T20:35:33.539Z,100699.08
2019-01-25T20:38:02.550Z,100682.88
2019-01-25T20:40:31.629Z,100670.36
2019-01-25T20:43:00.648Z,100671.92
2019-01-25T20:45:31.884Z,100659.56
2019-01-25T20:48:00.857Z,100664.01
2019-01-25T20:50:31.335Z,100659.22
2019-01-25T20:53:01.333Z,100660.53
2019-01-25T20:55:30.477Z,100658.77
2019-01-25T20:58:01.157Z,100643.48
2019-01-25T21:00:32.295Z,100640.92
2019-01-25T21:03:02.093Z,100642.69
2019-01-25T21:05:31.593Z,100639.22
2019-01-25T21:08:01.025Z,100636.42
2019-01-25T21:10:36.441Z,100617.76
2019-01-25T21:13:05.715Z,100618.65
2019-01-25T21:15:35.627Z,100606.30
2019-01-25T21:18:05.138Z,100596.66
2019-01-25T21:20:39.336Z,100590.73
2019-01-25T21:23:09.078Z,100595.28
2019-01-25T21:25:38.381Z,100581.55
2019-01-25T21:28:07.650Z,100582.98
2019-01-25T21:30:36.896Z,100578.63
2019-01-25T21:33:06.304Z,100574.08
2019-01-25T21:35:35.223Z,100571.09
2019-01-25T21:38:04.501Z,100567.23
2019-01-25T21:40:34.087Z,100549.80
2019-01-25T21:43:03.517Z,100542.09
2019-01-25T21:46:44.725Z,100537.13
2019-01-25T21:52:42.597Z,100542.67
2019-01-25T21:55:12.496Z,100539.95
2019-01-25T21:57:41.506Z,100536.55
2019-01-25T22:00:19.700Z,100530.71
2019-01-25T22:02:48.727Z,100524.66
2019-01-25T22:05:17.755Z,100517.46
2019-01-25T22:07:47.091Z,100520.78
2019-01-25T22:10:18.666Z,100506.13
2019-01-25T22:12:47.772Z,100502.10
2019-01-25T22:15:17.959Z,100498.50
2019-01-25T22:17:46.958Z,100494.45
2019-01-25T22:20:18.522Z,100482.13
2019-01-25T22:22:47.534Z,100484.09
2019-01-25T22:25:16.914Z,100464.11
2019-01-25T22:27:47.114Z,100462.51
2019-01-25T22:30:18.195Z,100453.92
2019-01-25T22:32:47.259Z,100444.94
2019-01-25T22:35:16.680Z,100459.77
2019-01-25T22:37:45.589Z,100435.37
2019-01-25T22:40:17.137Z,100434.89
2019-01-25T22:42:46.134Z,100441.34
2019-01-25T22:45:17.468Z,100449.02
2019-01-25T22:47:46.483Z,100457.83
2019-01-25T22:50:18.394Z,100446.48
2019-01-25T22:52:47.438Z,100443.23
2019-01-25T22:55:17.051Z,100429.97
2019-01-25T22:57:46.026Z,100415.95
2019-01-25T23:00:52.138Z,100420.64
2019-01-25T23:03:24.819Z,100412.45
2019-01-25T23:06:35.825Z,100395.85
2019-01-25T23:09:29.965Z,100401.07
2019-01-25T23:11:58.918Z,100407.05
2019-01-25T23:14:27.823Z,100405.02
2019-01-25T23:16:56.788Z,100402.70
2019-01-25T23:19:25.778Z,100386.31
2019-01-25T23:21:54.750Z,100387.75
2019-01-25T23:24:23.650Z,100381.81
2019-01-25T23:26:52.581Z,100370.66
2019-01-25T23:29:21.505Z,100367.05
2019-01-25T23:31:50.441Z,100357.45
2019-01-25T23:34:19.425Z,100344.04
2019-01-25T23:36:48.424Z,100349.06
2019-01-25T23:39:17.313Z,100342.75
2019-01-25T23:41:46.229Z,100349.58
2019-01-25T23:44:15.216Z,100346.92
2019-01-25T23:46:44.119Z,100342.09
2019-01-25T23:49:13.124Z,100330.79
2019-01-25T23:51:42.054Z,100326.32
2019-01-25T23:54:10.971Z,100323.91
2019-01-25T23:56:39.781Z,100330.74
2019-01-25T23:59:08.758Z,100319.88
